Baldwin, North Dakota
Current Conditions -  °F | °C
As of 2:52 AM on Friday 31 Oct 2014 (Local Time) from KBIS Reporting Station
Clear Clear  
Wind Chill: 11°   Ceiling: Unl
Heat Index: 19°   Visibility: 10mi
Dew Point: 17°   Wind: 6mph
Humidity: 92%   Direction: 50°NE
Pressure: 30.59"   Gusts: NA
Location:  47.02°N, 100.75°W
Report Text: KBIS 310752Z 05005KT 10SM CLR M07/M08 A3059 RMK AO2 SLP383 I1001 T10721083
Loading
Personal Weather Stations






























Interactive Weather Map
Tropical Storm Tracking
New forecast layout! Learn more

10-Day Weather Forecast

Advertisements
Track Severe Weather on mobile